createdAt,value
2018-11-22T12:15:55.942Z,95401.95
2018-11-22T12:20:59.307Z,95408.88
2018-11-22T12:26:02.659Z,95403.31
2018-11-22T12:31:06.719Z,95398.00
2018-11-22T12:36:09.398Z,95395.36
2018-11-22T12:41:12.748Z,95400.42
2018-11-22T12:46:16.097Z,95397.44
2018-11-22T12:51:19.443Z,95387.15
2018-11-22T12:56:22.852Z,95392.50
2018-11-22T13:01:26.201Z,95386.04
2018-11-22T13:06:30.324Z,95384.44
2018-11-22T13:11:33.779Z,95380.95
2018-11-22T13:16:37.127Z,95385.66
2018-11-22T13:21:40.484Z,95386.23
2018-11-22T13:26:44.605Z,95381.69
2018-11-22T13:31:48.749Z,95389.47
2018-11-22T13:36:52.088Z,95394.08
2018-11-22T13:41:55.440Z,95393.31
2018-11-22T13:46:59.679Z,95402.06
2018-11-22T13:52:03.029Z,95405.72
2018-11-22T13:57:06.383Z,95407.98
2018-11-22T14:02:09.731Z,95404.80
2018-11-22T14:07:13.860Z,95405.46
2018-11-22T14:12:17.983Z,95409.30
2018-11-22T14:17:21.334Z,95411.42
2018-11-22T14:22:24.696Z,95413.20
2018-11-22T14:27:28.045Z,95410.70
2018-11-22T14:32:32.168Z,95409.30
2018-11-22T14:37:36.288Z,95416.40
2018-11-22T14:42:39.664Z,95424.25
2018-11-22T14:47:43.024Z,95428.72
2018-11-22T14:52:47.137Z,95423.27
2018-11-22T14:57:50.492Z,95426.89
2018-11-22T15:02:53.833Z,95421.38
2018-11-22T15:07:57.191Z,95422.06
2018-11-22T15:13:01.313Z,95430.49
2018-11-22T15:18:04.657Z,95437.63
2018-11-22T15:23:08.002Z,95433.83
2018-11-22T15:28:11.344Z,95437.81
2018-11-22T15:33:14.819Z,95440.02
2018-11-22T15:38:18.168Z,95448.89
2018-11-22T15:43:21.513Z,95458.34
2018-11-22T15:48:24.867Z,95459.83
2018-11-22T15:53:28.215Z,95457.47
2018-11-22T15:58:31.576Z,95457.73
2018-11-22T16:03:34.921Z,95469.08
2018-11-22T16:08:38.278Z,95476.97
2018-11-22T16:13:41.622Z,95477.55
2018-11-22T16:18:44.974Z,95488.61
2018-11-22T16:23:48.324Z,95489.84
2018-11-22T16:28:51.678Z,95488.77
2018-11-22T16:33:58.094Z,95480.20
2018-11-22T16:39:07.604Z,95481.70
2018-11-22T16:44:11.883Z,95478.38
2018-11-22T16:49:15.246Z,95479.78
2018-11-22T16:54:42.415Z,95482.70
2018-11-22T16:59:45.784Z,95489.47
2018-11-22T17:04:49.149Z,95493.79
2018-11-22T17:09:52.507Z,95506.88
2018-11-22T17:14:55.864Z,95502.14
2018-11-22T17:19:59.242Z,95508.45
2018-11-22T17:25:02.616Z,95508.45
2018-11-22T17:30:11.238Z,95507.05
2018-11-22T17:35:09.396Z,95506.79
2018-11-22T17:40:12.745Z,95504.90
2018-11-22T17:45:19.139Z,95502.00
2018-11-22T17:50:23.067Z,95496.61
2018-11-22T17:55:26.425Z,95500.92
2018-11-22T18:00:30.704Z,95504.55
2018-11-22T18:05:34.393Z,95497.20
2018-11-22T18:10:38.511Z,95509.77
2018-11-22T18:15:41.862Z,95509.12
2018-11-22T18:20:45.204Z,95500.19
2018-11-22T18:25:49.087Z,95503.98
2018-11-22T18:30:51.953Z,95503.98
2018-11-22T18:35:55.326Z,95509.86
2018-11-22T18:40:58.678Z,95508.53
2018-11-22T18:46:02.042Z,95506.89
2018-11-22T18:51:05.402Z,95511.83
2018-11-22T18:56:08.745Z,95513.63
2018-11-22T19:01:12.100Z,95506.95
2018-11-22T19:06:15.458Z,95506.77
2018-11-22T19:11:18.815Z,95515.29
2018-11-22T19:16:22.147Z,95525.78
2018-11-22T19:21:25.512Z,95529.97
2018-11-22T19:26:28.873Z,95529.75
2018-11-22T19:31:32.225Z,95527.91
2018-11-22T19:36:35.564Z,95526.66
2018-11-22T19:41:38.905Z,95536.75
2018-11-22T19:46:42.245Z,95538.53
2018-11-22T19:51:45.611Z,95531.53
2018-11-22T19:56:49.304Z,95533.02
2018-11-22T20:01:53.749Z,95531.05
2018-11-22T20:06:57.856Z,95529.09
2018-11-22T20:12:01.214Z,95527.77
2018-11-22T20:17:04.563Z,95521.41
2018-11-22T20:22:13.221Z,95530.82
2018-11-22T20:27:16.566Z,95530.66
2018-11-22T20:32:38.788Z,95538.66
2018-11-22T20:37:38.601Z,95534.69
2018-11-22T20:42:41.959Z,95528.69
2018-11-22T20:47:46.096Z,95528.83
2018-11-22T20:52:49.447Z,95526.78
2018-11-22T20:57:52.889Z,95526.59
2018-11-22T21:02:56.245Z,95529.08
2018-11-22T21:08:03.402Z,95528.56
2018-11-22T21:13:06.745Z,95526.83
2018-11-22T21:18:10.843Z,95525.73
2018-11-22T21:23:14.201Z,95528.95
2018-11-22T21:28:17.552Z,95523.88
2018-11-22T21:33:20.900Z,95532.14
2018-11-22T21:38:24.240Z,95529.50
2018-11-22T21:43:57.616Z,95525.26
2018-11-22T21:49:00.966Z,95528.89
2018-11-22T21:54:04.310Z,95525.06
2018-11-22T21:59:07.656Z,95527.91
2018-11-22T22:04:10.999Z,95535.75
2018-11-22T22:09:15.107Z,95545.98
2018-11-22T22:14:24.463Z,95546.48
2018-11-22T22:19:27.798Z,95545.86
2018-11-22T22:24:31.897Z,95553.87
2018-11-22T22:29:35.239Z,95550.57
2018-11-22T22:34:39.356Z,95548.38
2018-11-22T22:39:43.475Z,95544.91
2018-11-22T22:44:46.826Z,95554.82
2018-11-22T22:49:50.168Z,95559.45
2018-11-22T22:54:53.515Z,95559.45
2018-11-22T22:59:56.857Z,95562.09
2018-11-22T23:05:01.010Z,95565.22
2018-11-22T23:10:04.357Z,95562.99
2018-11-22T23:15:07.708Z,95563.16
2018-11-22T23:20:11.063Z,95563.94
2018-11-22T23:25:14.398Z,95563.53
